Time;durP1;ratioP1;P1;durP2;ratioP2;P2;SDS_P1;SDS_P2;PMS_P1;PMS_P2;Temp;Humidity;BMP_temperature;BMP_pressure;BME280_temperature;BME280_humidity;BME280_pressure;Samples;Min_cycle;Max_cycle;Signal;HPM_P1;HPM_P2
2021/04/06 00:01:41;;;;;;;4.72;0.85;;;2.10;93.20;;;;;;4973596;28;20106;-60
2021/04/06 00:04:09;;;;;;;7.38;0.88;;;2.10;93.20;;;;;;4974304;28;20052;-60
2021/04/06 00:06:39;;;;;;;6.18;1.90;;;1.90;93.30;;;;;;4991544;28;20169;-60
2021/04/06 00:09:08;;;;;;;6.03;1.27;;;1.90;93.50;;;;;;4974426;28;20553;-61
2021/04/06 00:11:36;;;;;;;8.30;1.83;;;1.70;93.80;;;;;;4991656;28;20026;-60
2021/04/06 00:14:04;;;;;;;6.43;0.75;;;1.90;94.00;;;;;;4991899;28;20032;-61
2021/04/06 00:16:32;;;;;;;4.82;1.27;;;1.90;93.90;;;;;;4973241;28;20040;-62
2021/04/06 00:18:59;;;;;;;4.03;1.55;;;1.90;93.80;;;;;;4991559;28;20117;-61
2021/04/06 00:21:25;;;;;;;8.48;1.83;;;2.00;93.80;;;;;;4973539;28;20052;-61
2021/04/06 00:23:52;;;;;;;6.00;0.75;;;2.00;93.40;;;;;;4974317;28;20092;-62
2021/04/06 00:26:18;;;;;;;10.93;2.55;;;2.10;93.10;;;;;;4990781;28;20031;-60
2021/04/06 00:28:46;;;;;;;3.88;0.93;;;2.20;92.90;;;;;;4991332;28;20031;-60
2021/04/06 00:31:13;;;;;;;3.70;1.13;;;2.30;92.60;;;;;;4990726;28;20035;-60
2021/04/06 00:33:45;;;;;;;7.40;2.15;;;2.30;92.50;;;;;;4973884;28;20026;-60
2021/04/06 00:36:13;;;;;;;5.03;1.80;;;2.20;92.50;;;;;;4973301;28;20121;-60
2021/04/06 00:38:41;;;;;;;4.95;1.90;;;2.20;92.40;;;;;;4991262;28;20049;-60
2021/04/06 00:41:12;;;;;;;4.93;1.30;;;2.20;92.60;;;;;;4974051;28;20390;-61
2021/04/06 00:43:41;;;;;;;7.57;1.25;;;2.20;92.60;;;;;;4991717;28;20121;-60
2021/04/06 00:46:12;;;;;;;8.77;1.65;;;2.30;92.70;;;;;;4973511;28;20030;-60
2021/04/06 00:48:45;;;;;;;5.50;1.70;;;2.20;92.80;;;;;;4973878;28;20060;-59
2021/04/06 00:51:13;;;;;;;6.57;1.13;;;2.20;92.30;;;;;;4991568;28;20109;-60
2021/04/06 00:53:59;;;;;;;6.45;2.50;;;2.30;92.40;;;;;;4991389;28;20053;-60
2021/04/06 00:56:29;;;;;;;8.45;2.85;;;2.20;92.40;;;;;;4990630;28;20135;-59
2021/04/06 00:58:59;;;;;;;9.60;1.20;;;2.20;92.30;;;;;;4973525;28;20129;-60
2021/04/06 01:01:41;;;;;;;13.52;1.40;;;2.30;92.30;;;;;;4990732;28;20054;-60
2021/04/06 01:04:18;;;;;;;4.60;0.85;;;2.20;92.10;;;;;;4973724;28;20033;-60
2021/04/06 01:07:03;;;;;;;10.88;2.10;;;2.30;92.20;;;;;;4973449;28;20088;-60
2021/04/06 01:09:47;;;;;;;7.60;1.67;;;2.30;92.30;;;;;;4990436;28;20129;-60
2021/04/06 01:12:15;;;;;;;9.40;1.60;;;2.30;92.40;;;;;;4990415;28;20046;-60
2021/04/06 01:14:43;;;;;;;6.30;1.20;;;2.20;93.10;;;;;;4973553;28;20050;-59
2021/04/06 01:17:13;;;;;;;6.93;1.30;;;2.30;93.20;;;;;;4991072;28;20030;-60
2021/04/06 01:19:39;;;;;;;11.05;1.73;;;2.30;93.40;;;;;;4991218;28;20045;-60
2021/04/06 01:22:08;;;;;;;10.57;1.50;;;2.20;93.30;;;;;;4990890;28;20034;-60
2021/04/06 01:24:35;;;;;;;6.05;1.40;;;2.20;93.30;;;;;;4990204;28;20034;-60
2021/04/06 01:27:02;;;;;;;6.97;0.90;;;2.20;93.10;;;;;;4990784;28;20026;-60
2021/04/06 01:29:28;;;;;;;10.45;1.20;;;2.10;93.30;;;;;;4972705;28;20041;-60
2021/04/06 01:31:56;;;;;;;6.93;1.35;;;2.20;93.40;;;;;;4973195;28;20125;-60
2021/04/06 01:34:22;;;;;;;8.07;1.92;;;2.30;93.60;;;;;;4990498;28;20058;-60
2021/04/06 01:36:52;;;;;;;8.32;1.50;;;2.30;93.70;;;;;;4973070;28;20052;-60
2021/04/06 01:39:21;;;;;;;10.93;1.63;;;2.20;93.70;;;;;;4990003;28;20081;-60
2021/04/06 01:41:50;;;;;;;4.03;1.20;;;2.20;93.80;;;;;;4990784;28;20085;-60
2021/04/06 01:44:16;;;;;;;9.40;2.05;;;2.20;93.80;;;;;;4972647;28;20058;-60
2021/04/06 01:46:46;;;;;;;5.93;1.00;;;2.20;93.90;;;;;;4990684;28;20476;-60
2021/04/06 01:49:14;;;;;;;5.00;1.45;;;2.30;93.90;;;;;;4973042;28;20121;-61
2021/04/06 01:51:40;;;;;;;7.75;1.52;;;2.30;93.80;;;;;;4990746;28;20523;-60
2021/04/06 01:54:09;;;;;;;7.78;2.60;;;2.30;94.00;;;;;;4973396;28;20030;-61
2021/04/06 01:56:49;;;;;;;7.93;1.60;;;2.40;94.00;;;;;;4990109;28;20240;-61
2021/04/06 01:59:26;;;;;;;5.63;1.30;;;2.50;93.90;;;;;;4972940;28;20053;-60
2021/04/06 02:01:53;;;;;;;7.85;1.35;;;2.40;94.00;;;;;;4991329;28;20037;-61
2021/04/06 02:04:22;;;;;;;7.88;1.30;;;2.40;94.10;;;;;;4976088;28;20023;-61
2021/04/06 02:06:48;;;;;;;4.78;1.42;;;2.40;94.10;;;;;;4994112;28;20027;-61
2021/04/06 02:09:14;;;;;;;2.65;1.42;;;2.50;94.30;;;;;;4994127;28;20448;-61
2021/04/06 02:11:41;;;;;;;9.52;2.45;;;2.50;94.20;;;;;;4994387;28;20099;-60
2021/04/06 02:14:11;;;;;;;4.90;1.40;;;2.50;94.30;;;;;;4976638;28;20049;-61
2021/04/06 02:16:45;;;;;;;6.75;1.20;;;2.40;94.50;;;;;;4975901;28;20026;-61
2021/04/06 02:19:35;;;;;;;7.95;2.10;;;2.50;94.60;;;;;;4994034;28;20068;-61
2021/04/06 02:22:09;;;;;;;12.80;1.65;;;2.50;94.60;;;;;;4993757;28;20041;-60
2021/04/06 02:24:40;;;;;;;6.15;3.00;;;2.50;94.90;;;;;;4993218;28;20492;-60
2021/04/06 02:27:19;;;;;;;6.55;1.63;;;2.60;94.90;;;;;;4993269;28;20049;-60
2021/04/06 02:29:47;;;;;;;10.27;1.70;;;2.50;95.20;;;;;;4976221;28;20031;-60
2021/04/06 02:32:16;;;;;;;7.43;1.60;;;2.40;95.80;;;;;;4993444;28;20070;-60
2021/04/06 02:34:44;;;;;;;10.60;2.42;;;2.40;96.40;;;;;;4993633;28;20030;-60
2021/04/06 02:37:24;;;;;;;13.68;3.55;;;2.40;96.30;;;;;;4993611;28;20030;-60
2021/04/06 02:39:53;;;;;;;5.35;1.67;;;2.40;96.90;;;;;;4972592;28;20059;-60
2021/04/06 02:42:18;;;;;;;9.35;1.42;;;2.40;97.60;;;;;;4972138;28;20023;-59
2021/04/06 02:44:44;;;;;;;3.65;1.38;;;2.40;97.80;;;;;;4973972;28;20097;-62
2021/04/06 02:47:10;;;;;;;11.05;2.75;;;2.30;98.10;;;;;;4972933;28;20054;-61
2021/04/06 02:49:35;;;;;;;4.30;1.55;;;2.50;97.90;;;;;;4973566;28;20023;-59
2021/04/06 02:52:01;;;;;;;7.82;1.55;;;2.50;98.20;;;;;;4973727;28;20042;-59
2021/04/06 02:54:27;;;;;;;4.13;1.60;;;2.40;97.90;;;;;;4972067;28;20027;-61
2021/04/06 02:56:53;;;;;;;10.88;1.38;;;2.30;98.00;;;;;;4973733;28;20038;-61
2021/04/06 02:59:20;;;;;;;4.65;1.63;;;2.40;98.00;;;;;;4973652;28;20034;-60
2021/04/06 03:01:49;;;;;;;5.53;1.30;;;2.50;98.00;;;;;;4972342;28;20453;-60
2021/04/06 03:04:16;;;;;;;9.43;2.35;;;2.50;98.20;;;;;;4972349;28;20027;-60
2021/04/06 03:06:42;;;;;;;5.45;1.40;;;2.50;98.20;;;;;;4971587;28;20039;-60
2021/04/06 03:09:11;;;;;;;6.22;1.75;;;2.40;98.30;;;;;;4972615;28;20042;-60
2021/04/06 03:11:45;;;;;;;2.75;1.38;;;2.50;98.50;;;;;;4973069;28;20059;-60
2021/04/06 03:14:11;;;;;;;5.35;1.65;;;2.50;98.40;;;;;;4972877;28;20027;-60
2021/04/06 03:16:38;;;;;;;5.07;1.60;;;2.40;98.60;;;;;;4973335;28;20027;-60
2021/04/06 03:19:05;;;;;;;5.80;1.55;;;2.50;98.70;;;;;;4972131;28;20058;-61
2021/04/06 03:21:32;;;;;;;6.13;1.23;;;2.60;98.40;;;;;;4971532;28;20031;-61
2021/04/06 03:23:59;;;;;;;10.82;2.35;;;2.60;98.60;;;;;;4972048;28;20038;-61
2021/04/06 03:26:24;;;;;;;8.35;1.63;;;2.50;98.70;;;;;;4973060;28;20089;-61
2021/04/06 03:28:50;;;;;;;7.78;1.52;;;2.60;98.40;;;;;;4973377;28;20038;-61
2021/04/06 03:31:18;;;;;;;8.20;2.42;;;2.70;98.40;;;;;;4972174;28;20023;-60
2021/04/06 03:33:46;;;;;;;5.10;1.50;;;2.70;98.30;;;;;;4971129;28;20106;-61
2021/04/06 03:36:23;;;;;;;8.52;1.42;;;2.60;98.30;;;;;;4971682;28;20038;-61
2021/04/06 03:38:51;;;;;;;12.75;2.33;;;2.40;98.60;;;;;;4971665;28;20058;-60
2021/04/06 03:41:18;;;;;;;6.75;2.53;;;2.50;98.70;;;;;;4971837;28;20089;-60
2021/04/06 03:43:44;;;;;;;3.28;1.38;;;2.60;98.50;;;;;;4972559;28;20031;-61
2021/04/06 03:46:10;;;;;;;10.30;1.73;;;2.80;98.30;;;;;;4973086;28;20023;-60
2021/04/06 03:48:39;;;;;;;6.88;1.40;;;2.70;98.30;;;;;;4970874;28;20375;-61
2021/04/06 03:51:24;;;;;;;6.65;1.63;;;2.80;98.20;;;;;;4971415;28;20417;-60
2021/04/06 03:53:51;;;;;;;4.00;1.25;;;2.80;98.10;;;;;;4971336;28;20030;-61
2021/04/06 03:56:17;;;;;;;4.63;1.95;;;2.80;98.20;;;;;;4972554;28;20432;-60
2021/04/06 03:58:45;;;;;;;5.47;1.48;;;2.80;98.30;;;;;;4970494;28;20072;-60
2021/04/06 04:01:12;;;;;;;4.40;1.27;;;2.90;97.90;;;;;;4971156;28;20132;-60
2021/04/06 04:03:38;;;;;;;4.85;1.50;;;2.80;98.20;;;;;;4970449;28;20082;-61
2021/04/06 04:06:04;;;;;;;5.00;1.70;;;2.80;98.20;;;;;;4972333;28;20062;-60
2021/04/06 04:08:30;;;;;;;7.32;0.88;;;2.80;98.40;;;;;;4971877;28;20089;-60
2021/04/06 04:10:56;;;;;;;7.13;1.25;;;2.70;98.30;;;;;;4971154;28;20031;-60
2021/04/06 04:13:22;;;;;;;5.97;1.85;;;2.80;98.50;;;;;;4972169;28;20431;-60
2021/04/06 04:15:48;;;;;;;8.07;2.28;;;2.90;98.30;;;;;;4971800;28;20104;-60
2021/04/06 04:18:14;;;;;;;6.93;1.35;;;2.80;98.20;;;;;;4972178;28;20030;-60
2021/04/06 04:20:40;;;;;;;4.22;1.50;;;2.80;98.30;;;;;;4971755;28;20031;-61
2021/04/06 04:23:06;;;;;;;6.60;1.58;;;2.80;98.50;;;;;;4970804;28;20027;-61
2021/04/06 04:25:31;;;;;;;11.57;2.28;;;2.80;98.70;;;;;;4971088;28;20138;-61
2021/04/06 04:27:57;;;;;;;9.07;1.52;;;2.80;98.90;;;;;;4971901;28;20037;-61
2021/04/06 04:30:40;;;;;;;6.47;1.48;;;2.90;99.20;;;;;;4970866;28;20165;-60
2021/04/06 04:33:08;;;;;;;7.22;1.60;;;2.90;99.50;;;;;;4972130;28;20125;-61
2021/04/06 04:35:36;;;;;;;4.53;1.30;;;2.90;99.90;;;;;;4971262;28;20039;-60
2021/04/06 04:38:02;;;;;;;4.45;1.50;;;2.90;99.90;;;;;;4970351;28;20046;-60
2021/04/06 04:40:28;;;;;;;5.20;1.48;;;3.00;99.90;;;;;;4987303;28;20129;-60
2021/04/06 04:42:54;;;;;;;8.43;2.25;;;3.10;99.90;;;;;;4973560;28;20113;-60
2021/04/06 04:45:20;;;;;;;3.90;1.45;;;3.10;99.90;;;;;;4991191;28;20149;-61
2021/04/06 04:47:47;;;;;;;5.68;1.42;;;3.10;99.90;;;;;;4972951;28;20081;-60
2021/04/06 04:50:13;;;;;;;10.77;2.30;;;3.10;99.90;;;;;;4973434;28;20092;-61
2021/04/06 04:52:43;;;;;;;6.15;3.00;;;3.00;99.90;;;;;;4990462;28;20030;-60
2021/04/06 04:55:10;;;;;;;6.13;1.70;;;3.00;99.90;;;;;;4991177;28;20057;-61
2021/04/06 04:57:35;;;;;;;5.63;1.90;;;3.00;99.90;;;;;;4972912;28;20026;-61
2021/04/06 05:00:01;;;;;;;5.68;2.00;;;2.90;99.90;;;;;;4991492;28;20147;-61
2021/04/06 05:02:26;;;;;;;7.28;1.90;;;3.00;99.90;;;;;;4990326;28;20507;-61
2021/04/06 05:04:52;;;;;;;4.65;1.77;;;3.00;99.90;;;;;;4973583;28;20121;-61
2021/04/06 05:07:18;;;;;;;12.00;2.30;;;3.10;99.90;;;;;;4990880;28;20031;-61
2021/04/06 05:09:43;;;;;;;10.85;2.85;;;3.10;99.90;;;;;;4990217;28;20042;-60
2021/04/06 05:12:09;;;;;;;3.85;1.88;;;3.20;99.90;;;;;;4973397;28;20026;-61
2021/04/06 05:14:35;;;;;;;9.85;2.15;;;3.20;99.90;;;;;;4990585;28;20030;-61
2021/04/06 05:17:00;;;;;;;6.05;3.53;;;3.20;99.90;;;;;;4973887;28;20504;-61
2021/04/06 05:19:27;;;;;;;5.22;1.70;;;3.30;99.90;;;;;;4973715;28;20069;-60
2021/04/06 05:21:53;;;;;;;3.72;1.23;;;3.10;99.90;;;;;;4973429;28;20031;-61
2021/04/06 05:24:18;;;;;;;8.55;1.60;;;3.20;99.50;;;;;;4973721;28;20110;-61
2021/04/06 05:26:44;;;;;;;6.97;1.90;;;3.20;99.60;;;;;;4973068;28;20030;-61
2021/04/06 05:29:09;;;;;;;4.70;1.25;;;3.20;99.80;;;;;;4973683;28;20472;-60
2021/04/06 05:31:35;;;;;;;6.63;1.10;;;3.40;99.50;;;;;;4973008;28;20124;-61
2021/04/06 05:34:01;;;;;;;4.93;1.52;;;3.50;99.10;;;;;;4990899;28;20058;-60
2021/04/06 05:36:27;;;;;;;6.95;2.28;;;3.40;99.30;;;;;;4973134;28;20026;-61
2021/04/06 05:38:53;;;;;;;6.13;1.45;;;3.40;99.30;;;;;;4976417;28;20062;-61
2021/04/06 05:41:19;;;;;;;4.45;1.92;;;3.50;99.50;;;;;;4994873;28;20086;-61
2021/04/06 05:43:47;;;;;;;7.70;2.58;;;3.60;99.50;;;;;;4976448;28;20049;-61
2021/04/06 05:46:14;;;;;;;4.80;2.13;;;3.60;99.50;;;;;;4977279;28;20030;-61
2021/04/06 05:48:40;;;;;;;7.35;1.55;;;3.70;99.20;;;;;;4976335;28;20096;-60
2021/04/06 05:51:06;;;;;;;4.90;1.40;;;3.50;99.60;;;;;;4994862;28;20034;-60
2021/04/06 05:53:32;;;;;;;3.42;1.55;;;3.50;99.50;;;;;;4976153;28;20332;-62
2021/04/06 05:55:59;;;;;;;6.35;1.75;;;3.40;99.60;;;;;;4994227;28;20110;-60
2021/04/06 05:58:25;;;;;;;6.78;1.70;;;3.50;99.70;;;;;;4994377;28;20030;-61
2021/04/06 06:00:51;;;;;;;7.43;2.75;;;3.70;99.70;;;;;;4976131;28;20388;-61
2021/04/06 06:03:17;;;;;;;13.50;1.75;;;3.80;99.30;;;;;;4976833;28;20026;-62
2021/04/06 06:05:43;;;;;;;10.38;2.42;;;3.70;99.30;;;;;;4976174;28;20030;-61
2021/04/06 06:08:14;;;;;;;4.65;1.30;;;3.60;99.10;;;;;;4994434;28;20134;-61
2021/04/06 06:10:40;;;;;;;6.00;2.35;;;3.50;99.30;;;;;;4976165;28;20027;-61
2021/04/06 06:13:24;;;;;;;3.90;1.73;;;3.60;99.50;;;;;;4994249;28;20027;-61
2021/04/06 06:16:10;;;;;;;8.45;2.83;;;3.60;99.20;;;;;;4975788;28;20121;-61
2021/04/06 06:19:05;;;;;;;6.53;1.80;;;3.70;99.30;;;;;;4993500;28;20030;-61
2021/04/06 06:21:42;;;;;;;7.47;1.67;;;3.70;99.40;;;;;;4976046;28;20058;-62
2021/04/06 06:24:09;;;;;;;5.53;1.88;;;3.80;99.40;;;;;;4976825;28;20050;-62
2021/04/06 06:26:35;;;;;;;8.45;2.15;;;3.90;99.10;;;;;;4993434;28;20026;-60
2021/04/06 06:29:06;;;;;;;7.18;2.17;;;3.90;98.60;;;;;;4993650;28;20034;-61
2021/04/06 06:31:39;;;;;;;6.05;2.13;;;3.80;98.40;;;;;;4975556;28;20130;-61
2021/04/06 06:34:26;;;;;;;8.20;1.88;;;3.90;98.30;;;;;;4976027;28;20121;-61
2021/04/06 06:37:13;;;;;;;11.85;3.92;;;3.90;98.00;;;;;;4992594;28;20042;-60
2021/04/06 06:39:47;;;;;;;3.92;1.95;;;3.90;98.10;;;;;;4992201;28;20112;-60
2021/04/06 06:42:14;;;;;;;8.10;2.50;;;3.80;98.50;;;;;;4975854;28;20480;-60
2021/04/06 06:44:40;;;;;;;7.20;1.90;;;3.90;98.50;;;;;;4992690;28;20153;-61
2021/04/06 06:47:09;;;;;;;8.90;2.90;;;3.80;98.30;;;;;;4975874;28;20054;-60
2021/04/06 06:49:39;;;;;;;7.85;2.47;;;3.80;98.70;;;;;;4992463;28;20030;-61
2021/04/06 06:52:29;;;;;;;6.57;3.08;;;4.10;98.30;;;;;;4975349;28;20030;-61
2021/04/06 06:55:02;;;;;;;9.07;2.83;;;4.40;97.30;;;;;;4987321;28;20065;-60
2021/04/06 06:57:35;;;;;;;7.18;2.58;;;4.60;96.70;;;;;;4975657;28;20080;-61
2021/04/06 07:00:08;;;;;;;11.23;2.63;;;4.70;96.00;;;;;;4992809;28;20030;-61
2021/04/06 07:02:34;;;;;;;8.48;2.35;;;4.90;95.80;;;;;;4974651;28;20030;-60
2021/04/06 07:05:19;;;;;;;6.85;1.55;;;4.60;95.50;;;;;;4975141;28;20026;-60
2021/04/06 07:07:58;;;;;;;10.48;2.03;;;4.40;95.90;;;;;;4992341;28;20041;-61
2021/04/06 07:10:35;;;;;;;7.43;2.28;;;4.40;96.00;;;;;;4992867;28;20432;-61
2021/04/06 07:13:20;;;;;;;7.57;2.20;;;4.30;96.00;;;;;;4992938;28;20034;-61
2021/04/06 07:15:48;;;;;;;7.18;2.00;;;4.40;95.90;;;;;;4992288;28;20069;-61
2021/04/06 07:18:21;;;;;;;7.65;2.05;;;4.30;95.90;;;;;;4992695;28;20038;-61
2021/04/06 07:20:57;;;;;;;15.73;2.90;;;4.30;95.90;;;;;;4974489;28;20431;-60
2021/04/06 07:23:37;;;;;;;13.25;3.55;;;4.30;95.80;;;;;;4975008;28;20067;-60
2021/04/06 07:26:08;;;;;;;6.75;2.35;;;4.30;96.10;;;;;;4975407;28;20035;-60
2021/04/06 07:28:35;;;;;;;10.57;3.23;;;4.30;96.30;;;;;;4992664;28;20117;-60
2021/04/06 07:31:03;;;;;;;9.02;2.15;;;4.40;96.00;;;;;;4975663;28;20028;-61
2021/04/06 07:33:31;;;;;;;9.23;2.25;;;4.20;95.80;;;;;;4975253;28;20471;-60
2021/04/06 07:36:07;;;;;;;7.63;3.53;;;4.30;95.90;;;;;;4974536;28;20037;-60
2021/04/06 07:38:52;;;;;;;21.02;3.08;;;4.50;95.80;;;;;;4974891;28;20038;-61
2021/04/06 07:41:21;;;;;;;14.63;2.22;;;4.60;95.60;;;;;;4975062;28;20034;-60
2021/04/06 07:43:52;;;;;;;14.20;2.53;;;4.60;95.30;;;;;;4973681;28;20030;-61
2021/04/06 07:46:33;;;;;;;15.17;2.60;;;4.70;95.30;;;;;;4992198;28;20029;-61
2021/04/06 07:49:22;;;;;;;9.77;1.70;;;4.90;94.90;;;;;;4974181;28;20057;-61
2021/04/06 07:51:52;;;;;;;10.75;2.25;;;5.10;94.00;;;;;;4989679;28;20041;-61
2021/04/06 07:54:31;;;;;;;9.65;1.90;;;5.30;93.20;;;;;;4974685;28;20466;-61
2021/04/06 07:57:00;;;;;;;3.03;1.50;;;5.60;92.30;;;;;;4991351;28;20030;-60
2021/04/06 07:59:26;;;;;;;9.93;2.92;;;5.50;92.40;;;;;;4973938;28;20037;-60
2021/04/06 08:01:54;;;;;;;4.60;1.67;;;5.90;91.70;;;;;;4991573;28;20035;-60
2021/04/06 08:04:23;;;;;;;16.65;3.70;;;5.80;91.50;;;;;;4991724;28;20053;-60
2021/04/06 08:06:57;;;;;;;7.88;2.47;;;5.90;90.80;;;;;;4973728;28;20396;-60
2021/04/06 08:09:28;;;;;;;3.03;1.45;;;5.90;90.20;;;;;;4992165;28;20038;-60
2021/04/06 08:12:16;;;;;;;12.02;1.52;;;5.80;89.10;;;;;;4973554;28;20022;-62
2021/04/06 08:14:45;;;;;;;7.93;2.40;;;5.80;89.00;;;;;;4973687;28;20031;-60
2021/04/06 08:17:26;;;;;;;2.33;1.48;;;5.70;89.10;;;;;;4991903;28;20441;-60
2021/04/06 08:19:53;;;;;;;8.85;2.08;;;5.90;89.00;;;;;;5003283;28;20109;-60
2021/04/06 08:22:19;;;;;;;9.85;1.70;;;6.00;87.50;;;;;;5010937;28;20105;-60
2021/04/06 08:24:45;;;;;;;5.47;1.33;;;6.20;86.90;;;;;;4992545;28;20108;-63
2021/04/06 08:27:36;;;;;;;8.73;2.40;;;6.20;84.30;;;;;;5010447;28;20118;-60
2021/04/06 08:30:21;;;;;;;8.55;1.38;;;6.50;82.50;;;;;;4990822;28;20483;-60
2021/04/06 08:32:59;;;;;;;4.70;1.23;;;6.40;81.00;;;;;;4973903;28;20064;-60
2021/04/06 08:35:43;;;;;;;2.05;0.98;;;6.60;80.00;;;;;;4974471;28;20033;-62
2021/04/06 08:38:32;;;;;;;4.80;0.85;;;6.50;77.30;;;;;;4997164;28;20065;-62
2021/04/06 08:41:05;;;;;;;8.43;1.42;;;6.50;75.70;;;;;;4967026;28;20039;-61
2021/04/06 08:43:31;;;;;;;7.47;1.02;;;6.40;76.20;;;;;;4957024;28;20057;-60
2021/04/06 08:46:05;;;;;;;5.07;1.42;;;6.30;76.40;;;;;;4969682;28;20126;-62
2021/04/06 08:49:01;;;;;;;4.07;1.35;;;6.00;77.60;;;;;;4970167;28;20085;-63
2021/04/06 08:51:27;;;;;;;8.52;1.27;;;6.10;95.20;;;;;;4953085;28;20043;-62
2021/04/06 08:53:55;;;;;;;5.88;1.58;;;7.20;86.70;;;;;;4974636;28;20024;-61
2021/04/06 08:56:29;;;;;;;8.15;1.40;;;7.80;83.50;;;;;;4970077;28;20027;-60
2021/04/06 08:59:19;;;;;;;5.88;1.35;;;8.10;75.40;;;;;;4953869;28;20035;-62
2021/04/06 09:01:48;;;;;;;6.85;1.63;;;7.10;74.40;;;;;;4965412;28;20491;-63
2021/04/06 09:04:17;;;;;;;8.00;2.75;;;6.60;75.60;;;;;;4986089;28;20030;-61
2021/04/06 09:06:43;;;;;;;7.32;1.40;;;6.40;75.70;;;;;;4971070;28;20081;-61
2021/04/06 09:09:09;;;;;;;5.03;1.30;;;6.40;75.20;;;;;;4970936;28;20540;-58
2021/04/06 09:11:38;;;;;;;7.00;1.58;;;6.60;76.40;;;;;;4971170;28;20114;-60
2021/04/06 09:14:04;;;;;;;7.95;1.48;;;6.40;76.00;;;;;;4974414;28;20547;-64
2021/04/06 09:16:31;;;;;;;3.72;1.38;;;7.00;74.70;;;;;;4989421;28;20326;-59
2021/04/06 09:19:13;;;;;;;4.18;1.08;;;7.30;71.80;;;;;;4966276;28;20062;-60
2021/04/06 09:21:43;;;;;;;5.57;1.15;;;7.50;68.70;;;;;;4958139;28;20105;-61
2021/04/06 09:24:12;;;;;;;9.38;1.50;;;7.30;71.40;;;;;;4970456;28;20078;-59
2021/04/06 09:26:38;;;;;;;8.30;1.15;;;7.10;73.70;;;;;;4970716;28;20024;-59
2021/04/06 09:29:11;;;;;;;9.65;1.85;;;6.80;73.90;;;;;;4969971;28;20023;-62
2021/04/06 09:31:43;;;;;;;9.13;2.38;;;7.20;88.60;;;;;;4970664;28;20054;-55
2021/04/06 09:34:14;;;;;;;6.28;1.10;;;9.40;99.90;;;;;;4970610;28;20126;-60
2021/04/06 09:36:42;;;;;;;2.10;0.90;;;10.20;72.60;;;;;;4970504;28;20023;-60
2021/04/06 09:39:09;;;;;;;7.05;1.50;;;9.30;67.90;;;;;;4972859;28;20082;-60
2021/04/06 09:41:40;;;;;;;6.65;1.50;;;8.50;68.80;;;;;;4973489;28;20031;-58
2021/04/06 09:44:08;;;;;;;6.40;1.58;;;8.50;70.10;;;;;;4972563;28;20425;-60
2021/04/06 09:46:50;;;;;;;4.90;1.40;;;8.90;68.30;;;;;;4973204;28;20158;-60
2021/04/06 09:49:17;;;;;;;6.50;1.45;;;8.70;66.70;;;;;;4973138;28;20476;-61
2021/04/06 09:51:52;;;;;;;2.30;1.02;;;8.60;69.00;;;;;;4972241;28;20031;-61
2021/04/06 09:54:22;;;;;;;5.40;1.27;;;9.30;68.90;;;;;;4973242;28;20062;-61
2021/04/06 09:56:49;;;;;;;7.10;2.15;;;9.00;67.60;;;;;;4972703;28;20306;-61
2021/04/06 09:59:16;;;;;;;5.53;1.40;;;8.90;67.80;;;;;;4972903;28;20113;-62
2021/04/06 10:01:49;;;;;;;3.58;1.05;;;8.40;68.00;;;;;;4973298;28;20388;-60
2021/04/06 10:04:29;;;;;;;5.85;0.95;;;7.60;68.50;;;;;;4974453;28;20026;-61
2021/04/06 10:07:16;;;;;;;2.58;0.98;;;7.40;70.60;;;;;;4971962;28;20113;-61
2021/04/06 10:09:45;;;;;;;5.10;0.90;;;7.40;71.50;;;;;;4974478;28;20039;-60
2021/04/06 10:12:13;;;;;;;5.18;1.20;;;7.50;70.30;;;;;;4973796;28;20062;-61
2021/04/06 10:14:40;;;;;;;3.63;0.90;;;7.30;71.00;;;;;;4974014;28;20117;-60
2021/04/06 10:17:12;;;;;;;4.82;1.33;;;6.80;71.80;;;;;;4971974;28;20679;-60
2021/04/06 10:19:54;;;;;;;3.35;0.90;;;7.00;72.20;;;;;;4972091;28;20027;-60
2021/04/06 10:22:22;;;;;;;5.43;0.98;;;7.40;69.30;;;;;;4967518;28;20471;-60
2021/04/06 10:24:57;;;;;;;6.63;1.10;;;8.30;66.00;;;;;;4971825;28;20027;-60
2021/04/06 10:27:26;;;;;;;3.42;0.82;;;8.40;63.00;;;;;;4974190;28;20045;-60
2021/04/06 10:30:04;;;;;;;3.97;1.27;;;8.10;63.30;;;;;;4972150;28;20027;-61
2021/04/06 10:32:34;;;;;;;10.10;0.88;;;7.80;63.80;;;;;;4971865;28;20052;-61
2021/04/06 10:35:12;;;;;;;5.40;1.33;;;7.70;63.20;;;;;;4971621;28;20038;-64
2021/04/06 10:37:50;;;;;;;5.47;0.95;;;7.70;63.30;;;;;;4973798;28;20038;-60
2021/04/06 10:40:32;;;;;;;4.03;0.85;;;8.10;62.70;;;;;;4988324;28;20361;-60
2021/04/06 10:43:12;;;;;;;;;;;9.00;60.60;;;;;;4975813;28;20034;-61
2021/04/06 10:45:44;;;;;;;2.28;0.82;;;9.80;58.50;;;;;;4976435;28;19906;-60
2021/04/06 10:48:19;;;;;;;4.63;0.88;;;10.20;56.90;;;;;;4974394;28;20031;-62
2021/04/06 10:50:49;;;;;;;2.65;0.90;;;9.80;56.50;;;;;;4975778;28;20471;-59
2021/04/06 10:53:32;;;;;;;3.70;1.52;;;9.70;57.10;;;;;;4975304;28;20030;-60
2021/04/06 10:56:08;;;;;;;3.60;1.27;;;9.70;57.50;;;;;;4974259;28;20439;-61
2021/04/06 10:58:46;;;;;;;3.97;1.13;;;10.00;56.30;;;;;;4976023;28;20074;-60
2021/04/06 11:01:14;;;;;;;3.03;0.95;;;10.20;56.40;;;;;;4972612;28;20034;-62
2021/04/06 11:03:44;;;;;;;3.75;1.00;;;10.50;56.30;;;;;;4993801;28;20042;-60
2021/04/06 11:06:19;;;;;;;4.95;1.58;;;10.00;56.10;;;;;;4974437;28;20116;-60
2021/04/06 11:08:49;;;;;;;3.28;0.90;;;9.00;61.00;;;;;;4992868;28;20034;-61
2021/04/06 11:11:16;;;;;;;2.50;0.93;;;8.80;62.60;;;;;;4993124;28;20498;-60
2021/04/06 11:13:42;;;;;;;2.85;1.20;;;8.30;63.50;;;;;;4975894;28;20214;-62
2021/04/06 11:16:09;;;;;;;5.65;1.17;;;8.30;64.30;;;;;;4992482;28;20034;-61
2021/04/06 11:18:35;;;;;;;4.55;1.35;;;8.30;65.10;;;;;;4975322;28;20480;-62
2021/04/06 11:21:01;;;;;;;9.23;1.63;;;8.20;67.20;;;;;;4975240;28;20081;-61
2021/04/06 11:23:26;;;;;;;9.30;2.17;;;9.10;67.00;;;;;;4975571;28;20030;-61
2021/04/06 11:25:52;;;;;;;6.07;1.00;;;8.80;65.70;;;;;;4975570;28;20497;-63
2021/04/06 11:28:18;;;;;;;6.95;1.35;;;9.00;65.80;;;;;;4975406;28;20125;-61
2021/04/06 11:30:44;;;;;;;4.88;0.98;;;9.00;65.10;;;;;;4975886;28;20026;-62
2021/04/06 11:33:09;;;;;;;3.67;1.33;;;9.30;64.70;;;;;;4975072;28;20030;-61
2021/04/06 11:35:35;;;;;;;4.78;1.27;;;9.60;61.70;;;;;;4974844;28;20038;-61
2021/04/06 11:38:01;;;;;;;2.88;1.33;;;9.90;61.30;;;;;;4974704;28;20141;-61
2021/04/06 11:40:27;;;;;;;4.20;1.25;;;10.30;60.00;;;;;;4993028;28;20050;-61
2021/04/06 11:42:54;;;;;;;4.15;1.10;;;10.80;59.20;;;;;;4973835;28;20042;-61
2021/04/06 11:45:23;;;;;;;4.20;0.98;;;11.20;58.80;;;;;;4974379;28;20117;-62
2021/04/06 11:47:54;;;;;;;3.03;0.73;;;11.70;56.50;;;;;;4992363;28;20092;-61
2021/04/06 11:50:21;;;;;;;2.35;0.70;;;11.80;54.80;;;;;;4992096;28;20023;-61
2021/04/06 11:52:47;;;;;;;3.20;0.85;;;12.20;53.70;;;;;;4991899;28;20049;-62
2021/04/06 11:55:14;;;;;;;2.30;0.90;;;12.60;50.70;;;;;;4973720;28;20023;-61
2021/04/06 11:57:40;;;;;;;2.92;1.10;;;12.50;51.00;;;;;;4991734;28;20030;-61
2021/04/06 12:00:06;;;;;;;6.10;1.60;;;11.70;51.70;;;;;;4990817;28;20053;-61
2021/04/06 12:02:32;;;;;;;5.38;0.88;;;11.90;52.10;;;;;;4991584;28;20034;-61
2021/04/06 12:04:58;;;;;;;5.90;0.70;;;12.60;51.70;;;;;;4990614;28;20058;-61
2021/04/06 12:07:25;;;;;;;4.25;0.80;;;12.40;50.60;;;;;;4991189;28;20424;-61
2021/04/06 12:09:51;;;;;;;11.30;0.75;;;11.80;51.50;;;;;;4991528;28;20069;-61
2021/04/06 12:12:16;;;;;;;4.25;0.68;;;11.40;51.90;;;;;;4972949;28;20065;-62
2021/04/06 12:14:42;;;;;;;3.58;1.35;;;11.30;52.60;;;;;;4991119;28;20089;-61
2021/04/06 12:17:08;;;;;;;2.88;0.75;;;11.40;54.10;;;;;;4972508;28;20109;-61
2021/04/06 12:19:33;;;;;;;2.22;0.68;;;11.50;52.50;;;;;;4991293;28;20046;-61
2021/04/06 12:21:59;;;;;;;6.15;0.70;;;11.40;51.40;;;;;;4972944;28;20461;-62
2021/04/06 12:24:25;;;;;;;2.08;0.73;;;10.90;52.00;;;;;;4990928;28;20395;-61
2021/04/06 12:26:53;;;;;;;3.60;0.50;;;11.20;50.20;;;;;;4990576;28;20376;-61
2021/04/06 12:29:18;;;;;;;1.55;0.65;;;11.80;48.20;;;;;;4973588;28;20105;-61
2021/04/06 12:31:44;;;;;;;11.98;1.73;;;11.50;48.50;;;;;;4990814;28;20415;-60
2021/04/06 12:34:10;;;;;;;1.98;0.22;;;11.90;49.40;;;;;;4990022;28;20424;-60
2021/04/06 12:36:36;;;;;;;2.78;0.50;;;12.50;48.20;;;;;;4973388;28;20030;-60
2021/04/06 12:39:01;;;;;;;4.03;0.40;;;12.80;47.80;;;;;;4972109;28;20100;-60
2021/04/06 12:41:27;;;;;;;3.28;0.40;;;12.60;48.10;;;;;;4990015;28;20117;-61
2021/04/06 12:43:53;;;;;;;2.35;0.50;;;13.20;46.90;;;;;;4990246;28;20035;-60
2021/04/06 12:46:18;;;;;;;4.30;0.63;;;13.40;45.40;;;;;;4972600;28;20022;-60
2021/04/06 12:48:44;;;;;;;0.65;0.17;;;13.50;45.10;;;;;;4972548;28;20033;-62
2021/04/06 12:51:10;;;;;;;0.95;0.40;;;13.30;45.30;;;;;;4989387;28;20029;-60
2021/04/06 12:53:36;;;;;;;3.50;0.30;;;13.50;44.70;;;;;;4990661;28;20030;-61
2021/04/06 12:56:02;;;;;;;3.72;1.23;;;13.50;45.80;;;;;;4989558;28;20439;-61
2021/04/06 12:58:28;;;;;;;3.38;0.30;;;13.60;46.00;;;;;;4973119;28;20125;-60
2021/04/06 13:00:54;;;;;;;1.00;0.40;;;13.80;43.70;;;;;;4990459;28;20487;-60
2021/04/06 13:03:20;;;;;;;4.78;0.40;;;14.00;43.20;;;;;;4972726;28;20026;-61
2021/04/06 13:05:46;;;;;;;2.22;0.55;;;14.20;41.00;;;;;;4990264;28;20039;-60
2021/04/06 13:08:11;;;;;;;2.15;0.32;;;14.10;41.20;;;;;;4972901;28;20044;-59
2021/04/06 13:10:39;;;;;;;1.65;0.55;;;13.80;41.60;;;;;;4973776;28;20119;-62